Fort Atkinson, Iowa
Current Conditions -  °F | °C
As of 2:35 PM on Friday 28 Nov 2014 (Local Time) from KDEH Reporting Station
Clear Clear  
Wind Chill: 15°   Ceiling: Unl
Heat Index: 25°   Visibility: 10mi
Dew Point: 19°   Wind: 9mph
Humidity: 80%   Direction: 150°SSE
Pressure: 29.84"   Gusts: 15mph
Location:  43.14°N, 91.93°W
Report Text: KDEH 282035Z AUTO 15008G13KT 10SM CLR M04/M07 A2984 RMK AO2
Loading
Personal Weather Stations






























Interactive Weather Map New forecast layout! Learn more

10-Day Weather Forecast

Advertisements
Track Severe Weather on mobile